Time;durP1;ratioP1;P1;durP2;ratioP2;P2;SDS_P1;SDS_P2;PMS_P1;PMS_P2;Temp;Humidity;BMP_temperature;BMP_pressure;BME280_temperature;BME280_humidity;BME280_pressure;Samples;Min_cycle;Max_cycle;Signal;HPM_P1;HPM_P2
2022/06/02 00:02:25;;;;;;;18.40;11.32;;;9.50;99.90;;;;;;5069184;28;20040;-77
2022/06/02 00:05:15;;;;;;;12.95;10.57;;;9.50;99.90;;;;;;5075564;28;20754;-81
2022/06/02 00:08:04;;;;;;;13.93;11.35;;;9.50;99.90;;;;;;5070264;28;20047;-79
2022/06/02 00:10:50;;;;;;;14.07;10.90;;;9.50;99.90;;;;;;5052480;28;20508;-78
2022/06/02 00:13:31;;;;;;;12.68;10.50;;;9.40;99.90;;;;;;5072608;28;20036;-80
2022/06/02 00:16:25;;;;;;;14.32;10.45;;;9.30;99.90;;;;;;5066926;28;20037;-79
2022/06/02 00:18:57;;;;;;;11.85;10.55;;;9.40;99.90;;;;;;5068506;28;20040;-77
2022/06/02 00:21:31;;;;;;;13.68;9.90;;;9.30;99.90;;;;;;5067009;28;20040;-81
2022/06/02 00:24:03;;;;;;;16.50;10.30;;;9.30;99.90;;;;;;5044104;28;20611;-78
2022/06/02 00:26:47;;;;;;;16.35;11.20;;;9.20;99.90;;;;;;5072001;28;20050;-78
2022/06/02 00:29:23;;;;;;;15.75;10.52;;;9.20;99.90;;;;;;5067026;28;20138;-80
2022/06/02 00:32:02;;;;;;;12.07;9.70;;;9.10;99.90;;;;;;5073384;28;20101;-79
2022/06/02 00:34:49;;;;;;;11.77;9.80;;;9.00;99.90;;;;;;5063134;28;20211;-79
2022/06/02 00:37:33;;;;;;;12.40;10.43;;;9.00;99.90;;;;;;5078674;28;20123;-77
2022/06/02 00:40:00;;;;;;;14.52;9.77;;;9.00;99.90;;;;;;5066155;28;20103;-81
2022/06/02 00:42:26;;;;;;;12.05;10.02;;;9.00;99.90;;;;;;5065297;28;20123;-77
2022/06/02 00:45:06;;;;;;;15.05;10.23;;;8.80;99.90;;;;;;5054844;28;20198;-80
2022/06/02 00:47:53;;;;;;;13.75;10.85;;;8.90;99.90;;;;;;5073262;28;20086;-78
2022/06/02 00:57:32;;;;;;;13.20;10.82;;;8.70;99.90;;;;;;5090383;28;20640;-81
2022/06/02 01:00:17;;;;;;;12.65;10.90;;;8.70;99.90;;;;;;5056301;28;20041;-79
2022/06/02 01:02:52;;;;;;;14.00;10.98;;;8.70;99.90;;;;;;5054723;28;20096;-78
2022/06/02 01:05:38;;;;;;;14.18;11.25;;;8.70;99.90;;;;;;5064381;28;20071;-78
2022/06/02 01:08:23;;;;;;;14.27;10.60;;;8.60;99.90;;;;;;5051985;28;20068;-78
2022/06/02 01:11:16;;;;;;;15.15;12.13;;;8.60;99.90;;;;;;5055390;28;20492;-79
2022/06/02 01:13:41;;;;;;;15.10;11.75;;;8.60;99.90;;;;;;5057336;28;20040;-78
2022/06/02 01:16:17;;;;;;;14.75;11.68;;;8.60;99.90;;;;;;5069920;28;20550;-79
2022/06/02 01:18:54;;;;;;;25.25;12.50;;;8.60;99.90;;;;;;5068680;28;20124;-79
2022/06/02 01:21:25;;;;;;;17.42;12.38;;;8.60;99.90;;;;;;5067774;28;20059;-77
2022/06/02 01:24:02;;;;;;;14.98;11.80;;;8.50;99.90;;;;;;5071438;28;20052;-79
2022/06/02 01:26:40;;;;;;;15.95;11.73;;;8.50;99.90;;;;;;5069361;28;20485;-78
2022/06/02 01:29:20;;;;;;;15.07;11.98;;;8.50;99.90;;;;;;5055233;28;20573;-80
2022/06/02 01:32:07;;;;;;;14.85;11.57;;;8.50;99.90;;;;;;5074049;28;20494;-77
2022/06/02 01:35:20;;;;;;;16.85;12.20;;;8.50;99.90;;;;;;5067328;28;20190;-78
2022/06/02 01:38:09;;;;;;;15.75;11.98;;;8.40;99.90;;;;;;5061377;28;20047;-80
2022/06/02 01:40:40;;;;;;;14.05;12.18;;;8.50;99.90;;;;;;5076567;28;20114;-79
2022/06/02 01:43:17;;;;;;;18.48;12.27;;;8.40;99.90;;;;;;5072380;28;20248;-79
2022/06/02 01:46:14;;;;;;;18.38;12.65;;;8.30;99.90;;;;;;5057517;28;20043;-77
2022/06/02 01:49:04;;;;;;;16.48;12.02;;;8.40;99.90;;;;;;5057294;28;20089;-77
2022/06/02 01:51:45;;;;;;;13.90;11.13;;;8.30;99.90;;;;;;5065484;28;20055;-78
2022/06/02 01:54:30;;;;;;;15.90;11.27;;;8.30;99.90;;;;;;5068542;28;20039;-77
2022/06/02 01:57:27;;;;;;;17.30;12.23;;;8.30;99.90;;;;;;5078970;28;20040;-79
2022/06/02 02:00:19;;;;;;;19.35;12.07;;;8.30;99.90;;;;;;5071138;28;20467;-80
2022/06/02 02:02:51;;;;;;;15.93;12.65;;;8.30;99.90;;;;;;5048903;28;20047;-80
2022/06/02 02:05:28;;;;;;;17.40;12.35;;;8.30;99.90;;;;;;5065649;28;20052;-80
2022/06/02 02:08:13;;;;;;;16.45;13.07;;;8.30;99.90;;;;;;5065819;28;20479;-78
2022/06/02 02:11:11;;;;;;;16.27;13.20;;;8.20;99.90;;;;;;5054824;28;20044;-80
2022/06/02 02:13:58;;;;;;;16.05;12.77;;;8.20;99.90;;;;;;5067716;28;20536;-78
2022/06/02 02:17:03;;;;;;;15.32;11.80;;;8.20;99.90;;;;;;5058553;28;20040;-77
2022/06/02 02:19:57;;;;;;;15.45;12.55;;;8.20;99.90;;;;;;5061159;28;20033;-77
2022/06/02 02:22:40;;;;;;;21.30;12.70;;;8.20;99.90;;;;;;5058630;28;20083;-77
2022/06/02 02:25:12;;;;;;;14.00;12.07;;;8.10;99.90;;;;;;5064579;28;20036;-78
2022/06/02 02:28:04;;;;;;;12.52;11.15;;;8.10;99.90;;;;;;5068302;28;20047;-80
2022/06/02 02:30:43;;;;;;;14.07;10.82;;;8.10;99.90;;;;;;5074443;28;20031;-77
2022/06/02 02:33:42;;;;;;;13.40;10.38;;;8.00;99.90;;;;;;5075426;28;20111;-80
2022/06/02 02:36:27;;;;;;;15.45;10.88;;;8.10;99.90;;;;;;4987899;28;20075;-80
2022/06/02 02:39:11;;;;;;;14.02;10.50;;;8.10;99.90;;;;;;4986232;28;20153;-77
2022/06/02 02:42:00;;;;;;;12.07;10.27;;;8.10;99.90;;;;;;4989532;28;20197;-80
2022/06/02 02:44:34;;;;;;;14.80;10.80;;;8.00;99.90;;;;;;4996917;28;20031;-78
2022/06/02 02:47:06;;;;;;;12.32;10.43;;;8.00;99.90;;;;;;4978285;28;20061;-78
2022/06/02 02:49:42;;;;;;;15.65;10.45;;;8.10;99.90;;;;;;4975164;28;20056;-78
2022/06/02 02:52:40;;;;;;;15.60;10.85;;;8.10;99.90;;;;;;4990814;28;20378;-77
2022/06/02 02:55:17;;;;;;;13.73;10.57;;;8.10;99.90;;;;;;4995436;28;20081;-80
2022/06/02 02:58:07;;;;;;;14.20;11.02;;;8.00;99.90;;;;;;4970320;28;20038;-78
2022/06/02 03:00:41;;;;;;;14.38;11.18;;;8.10;99.90;;;;;;4983094;28;20443;-80
2022/06/02 03:03:15;;;;;;;18.23;11.35;;;8.00;99.90;;;;;;4970228;28;21781;-81
2022/06/02 03:06:03;;;;;;;18.67;11.98;;;8.10;99.90;;;;;;4971101;28;20145;-78
2022/06/02 03:08:44;;;;;;;14.13;11.23;;;8.10;99.90;;;;;;4991683;28;20052;-78
2022/06/02 03:11:40;;;;;;;14.82;11.63;;;8.10;99.90;;;;;;4986867;28;20117;-78
2022/06/02 03:14:41;;;;;;;15.73;11.38;;;8.10;99.90;;;;;;5061328;28;20394;-81
2022/06/02 03:17:29;;;;;;;16.27;12.05;;;8.20;99.90;;;;;;5063524;28;20036;-79
2022/06/02 03:20:01;;;;;;;15.07;11.90;;;8.20;99.90;;;;;;5078616;28;20046;-82
2022/06/02 03:22:55;;;;;;;17.10;11.63;;;8.10;99.90;;;;;;5074834;28;20051;-79
2022/06/02 03:25:41;;;;;;;20.33;11.88;;;8.20;99.90;;;;;;5068150;28;20078;-78
2022/06/02 03:28:48;;;;;;;13.07;11.02;;;8.20;99.90;;;;;;5074296;28;20143;-77
2022/06/02 03:31:44;;;;;;;13.63;11.27;;;8.20;99.90;;;;;;4984785;28;20041;-79
2022/06/02 03:34:18;;;;;;;17.58;11.18;;;8.20;99.90;;;;;;4981025;28;20063;-79
2022/06/02 03:37:21;;;;;;;13.63;10.90;;;8.20;99.90;;;;;;4986363;28;20203;-79
2022/06/02 03:40:33;;;;;;;15.73;11.27;;;8.20;99.90;;;;;;4986058;28;20065;-81
2022/06/02 03:43:15;;;;;;;16.27;11.73;;;8.20;99.90;;;;;;4951599;28;20372;-80
2022/06/02 03:45:53;;;;;;;13.55;10.85;;;8.20;99.90;;;;;;4957668;28;20474;-79
2022/06/02 03:48:46;;;;;;;15.15;10.75;;;8.30;99.90;;;;;;4955422;28;20058;-77
2022/06/02 03:51:17;;;;;;;13.10;11.30;;;8.30;99.90;;;;;;4963815;28;20050;-76
2022/06/02 03:54:13;;;;;;;17.95;12.40;;;8.30;99.90;;;;;;4943914;28;20055;-80
2022/06/02 03:56:53;;;;;;;16.85;11.07;;;8.30;99.90;;;;;;4962884;28;20080;-77
2022/06/02 03:59:22;;;;;;;13.35;10.75;;;8.30;99.90;;;;;;4949262;28;20117;-81
2022/06/02 04:02:08;;;;;;;15.82;10.70;;;8.30;99.90;;;;;;4945373;28;20050;-78
2022/06/02 04:04:49;;;;;;;20.77;10.98;;;8.40;99.90;;;;;;4971089;28;20125;-79
2022/06/02 04:07:31;;;;;;;15.05;10.75;;;8.40;99.90;;;;;;4990259;28;20077;-78
2022/06/02 04:10:24;;;;;;;14.45;10.68;;;8.40;99.90;;;;;;4987421;28;20041;-80
2022/06/02 04:16:18;;;;;;;13.40;10.35;;;8.50;99.90;;;;;;5017796;28;20049;-77
2022/06/02 04:22:46;;;;;;;14.25;10.07;;;8.70;99.90;;;;;;5005244;28;20049;-82
2022/06/02 04:25:14;;;;;;;13.65;10.25;;;8.80;99.90;;;;;;4998813;28;20045;-82
2022/06/02 04:27:55;;;;;;;13.82;9.65;;;8.80;99.90;;;;;;4997045;28;20041;-78
2022/06/02 04:30:34;;;;;;;13.73;9.68;;;9.00;99.90;;;;;;5026272;28;20545;-78
2022/06/02 04:33:16;;;;;;;14.98;9.30;;;9.90;99.90;;;;;;5021370;28;20037;-80
2022/06/02 04:35:49;;;;;;;14.25;8.52;;;10.80;99.90;;;;;;5007898;28;20064;-79
2022/06/02 04:38:34;;;;;;;15.75;8.70;;;11.70;99.90;;;;;;5023637;28;20092;-81
2022/06/02 04:41:23;;;;;;;9.85;7.57;;;12.30;99.90;;;;;;5024921;28;20037;-79
2022/06/02 04:43:56;;;;;;;8.98;7.28;;;12.70;99.90;;;;;;5008560;28;20041;-80
2022/06/02 04:46:38;;;;;;;10.40;7.55;;;13.20;99.90;;;;;;5021524;28;20045;-79
2022/06/02 04:49:26;;;;;;;11.05;7.28;;;13.70;99.90;;;;;;5023374;28;20205;-80
2022/06/02 04:51:56;;;;;;;8.48;6.47;;;14.00;99.90;;;;;;5007221;28;20103;-80
2022/06/02 04:54:36;;;;;;;10.23;7.38;;;14.10;99.90;;;;;;5006358;28;20497;-80
2022/06/02 04:57:38;;;;;;;9.43;7.55;;;13.10;99.90;;;;;;5069590;28;20083;-81
2022/06/02 05:00:20;;;;;;;9.13;6.57;;;12.40;99.90;;;;;;5049974;28;20126;-81
2022/06/02 05:03:07;;;;;;;10.00;6.78;;;11.80;99.90;;;;;;5067484;28;20043;-79
2022/06/02 05:05:57;;;;;;;12.55;6.70;;;11.40;99.90;;;;;;5054981;28;20307;-79
2022/06/02 05:09:01;;;;;;;9.70;6.45;;;11.10;99.90;;;;;;5063791;28;20048;-78
2022/06/02 05:11:56;;;;;;;10.13;6.47;;;11.00;99.90;;;;;;5070068;28;20049;-83
2022/06/02 05:14:33;;;;;;;10.55;6.18;;;10.90;99.90;;;;;;4979425;28;20539;-79
2022/06/02 05:17:16;;;;;;;7.78;6.13;;;10.90;99.90;;;;;;5021977;28;20179;-78
2022/06/02 05:20:19;;;;;;;9.57;6.00;;;10.90;99.90;;;;;;5001863;28;20092;-81
2022/06/02 05:23:04;;;;;;;9.15;5.53;;;10.90;99.90;;;;;;5012899;28;20168;-78
2022/06/02 05:25:43;;;;;;;;;;;10.90;99.90;;;;;;5004966;28;20616;-81
2022/06/02 05:28:15;;;;;;;9.82;5.43;;;10.80;99.90;;;;;;5029592;28;20368;-79
2022/06/02 05:31:16;;;;;;;7.70;5.65;;;10.90;99.90;;;;;;5005765;28;20382;-79
2022/06/02 05:34:11;;;;;;;7.97;5.18;;;11.00;99.90;;;;;;5003622;28;20427;-78
2022/06/02 05:36:58;;;;;;;8.05;5.00;;;11.00;99.90;;;;;;5002785;28;20053;-78
2022/06/02 05:39:29;;;;;;;7.97;4.95;;;11.00;99.90;;;;;;5001176;28;20089;-79
2022/06/02 05:42:01;;;;;;;6.65;4.63;;;11.10;99.90;;;;;;5004965;28;20030;-79
2022/06/02 05:45:01;;;;;;;7.95;4.65;;;11.10;99.90;;;;;;4994385;28;20054;-78
2022/06/02 05:47:54;;;;;;;6.18;4.50;;;11.20;99.90;;;;;;5007387;28;20033;-79
2022/06/02 05:50:44;;;;;;;6.55;4.90;;;11.20;99.90;;;;;;4994080;28;20245;-78
2022/06/02 05:53:37;;;;;;;8.32;4.63;;;11.30;99.90;;;;;;5061189;28;20051;-79
2022/06/02 05:56:14;;;;;;;5.97;4.18;;;11.30;99.90;;;;;;5065166;28;20430;-79
2022/06/02 05:58:52;;;;;;;10.05;3.88;;;11.50;99.90;;;;;;5048471;28;20028;-80
2022/06/02 06:02:05;;;;;;;6.10;4.10;;;11.50;99.90;;;;;;5068077;28;20380;-79
2022/06/02 06:05:09;;;;;;;6.30;3.80;;;11.60;99.90;;;;;;5049091;28;20099;-79
2022/06/02 06:08:08;;;;;;;5.97;3.30;;;11.70;99.90;;;;;;4992019;28;20090;-80
2022/06/02 06:10:45;;;;;;;8.30;4.00;;;11.70;99.90;;;;;;4976402;28;20071;-80
2022/06/02 06:13:11;;;;;;;8.88;3.88;;;11.80;99.90;;;;;;4981934;28;20042;-78
2022/06/02 06:15:57;;;;;;;7.20;3.38;;;11.90;99.90;;;;;;4958206;28;20101;-79
2022/06/02 06:18:25;;;;;;;5.40;3.22;;;11.90;99.90;;;;;;4969971;28;20054;-79
2022/06/02 06:21:24;;;;;;;9.63;3.20;;;12.00;99.90;;;;;;4969529;28;20061;-79
2022/06/02 06:23:59;;;;;;;4.82;2.70;;;12.10;99.90;;;;;;4954854;28;20466;-80
2022/06/02 06:26:53;;;;;;;6.30;3.05;;;12.20;99.90;;;;;;4966085;28;20134;-80
2022/06/02 06:29:49;;;;;;;5.03;2.40;;;12.20;99.90;;;;;;4968794;28;20557;-78
2022/06/02 06:32:21;;;;;;;4.63;2.58;;;12.30;99.90;;;;;;4974915;28;20046;-81
2022/06/02 06:35:22;;;;;;;2.95;2.15;;;12.40;99.90;;;;;;4955939;28;21874;-81
2022/06/02 06:38:03;;;;;;;7.47;2.40;;;12.40;99.90;;;;;;4975604;28;20372;-77
2022/06/02 06:40:43;;;;;;;4.63;2.80;;;12.50;99.90;;;;;;4971798;28;20363;-77
2022/06/02 06:43:52;;;;;;;5.22;2.58;;;12.50;99.90;;;;;;4979003;28;20136;-76
2022/06/02 06:46:38;;;;;;;7.82;2.22;;;12.60;99.90;;;;;;4975547;28;20054;-79
2022/06/02 06:49:29;;;;;;;7.47;2.08;;;12.60;99.90;;;;;;4983419;28;20054;-80
2022/06/02 06:52:21;;;;;;;6.25;2.30;;;12.70;99.90;;;;;;4973813;28;20162;-79
2022/06/02 06:54:52;;;;;;;3.53;2.20;;;12.90;99.90;;;;;;4980844;28;20050;-79
2022/06/02 06:57:31;;;;;;;6.32;2.53;;;13.00;99.90;;;;;;4987016;28;20070;-80
2022/06/02 07:00:21;;;;;;;4.45;1.92;;;13.20;99.90;;;;;;4975759;28;20138;-78
2022/06/02 07:02:59;;;;;;;2.88;2.00;;;13.30;99.90;;;;;;4972350;28;20046;-79
2022/06/02 07:05:42;;;;;;;7.68;2.20;;;13.30;99.90;;;;;;4966283;28;20169;-80
2022/06/02 07:08:31;;;;;;;3.15;2.08;;;13.30;99.90;;;;;;4969494;28;20042;-81
2022/06/02 07:14:56;;;;;;;10.85;2.40;;;13.70;99.90;;;;;;4930939;29;20190;-78
2022/06/02 07:17:44;;;;;;;6.40;2.42;;;13.70;99.90;;;;;;4927006;28;20043;-79
2022/06/02 07:20:55;;;;;;;4.03;1.98;;;13.80;99.90;;;;;;4935781;28;20071;-80
2022/06/02 07:23:40;;;;;;;5.25;1.98;;;13.90;99.90;;;;;;4933551;28;20287;-82
2022/06/02 07:26:34;;;;;;;8.05;2.20;;;14.00;99.90;;;;;;4969131;28;20421;-81
2022/06/02 07:29:34;;;;;;;5.05;2.40;;;14.10;99.90;;;;;;4951450;28;20351;-79
2022/06/02 07:32:36;;;;;;;4.53;2.22;;;14.20;99.90;;;;;;4952395;28;20533;-81
2022/06/02 07:35:23;;;;;;;5.90;1.92;;;14.30;99.90;;;;;;4947667;28;20908;-81
2022/06/02 07:38:06;;;;;;;3.72;1.50;;;14.30;99.90;;;;;;4960904;28;20391;-80
2022/06/02 07:40:41;;;;;;;6.53;1.88;;;14.40;99.90;;;;;;4974939;28;20051;-82
2022/06/02 07:43:09;;;;;;;6.45;1.60;;;14.40;99.90;;;;;;4965187;28;20041;-80
2022/06/02 07:46:08;;;;;;;5.50;1.88;;;14.60;99.90;;;;;;4981121;28;20054;-80
2022/06/02 07:48:53;;;;;;;4.40;1.80;;;14.60;99.90;;;;;;4984313;28;20056;-79
2022/06/02 07:51:33;;;;;;;6.68;1.83;;;14.60;99.90;;;;;;5039151;28;20085;-79
2022/06/02 07:54:17;;;;;;;4.07;1.63;;;14.50;99.90;;;;;;5064175;28;20614;-79
2022/06/02 07:57:07;;;;;;;5.60;1.83;;;14.50;99.90;;;;;;5078875;28;20412;-80
2022/06/02 07:59:51;;;;;;;5.45;1.63;;;14.50;99.90;;;;;;5074929;28;20043;-80
2022/06/02 08:02:32;;;;;;;5.87;1.90;;;14.60;99.90;;;;;;5099871;28;20028;-81
2022/06/02 08:05:31;;;;;;;5.25;1.70;;;14.50;99.90;;;;;;5076323;28;20696;-81
2022/06/02 08:08:31;;;;;;;5.93;2.10;;;14.70;99.90;;;;;;5067868;28;20119;-77
2022/06/02 08:11:08;;;;;;;5.15;1.70;;;14.80;99.90;;;;;;5091706;28;20051;-79
2022/06/02 08:13:48;;;;;;;4.57;1.65;;;14.90;99.90;;;;;;5072895;28;20083;-78
2022/06/02 08:16:21;;;;;;;5.38;1.38;;;15.00;99.90;;;;;;5089196;28;20403;-80
2022/06/02 08:19:08;;;;;;;4.38;1.45;;;14.80;99.90;;;;;;5052088;28;20037;-80
2022/06/02 08:21:40;;;;;;;3.53;1.38;;;14.90;99.90;;;;;;5052147;28;20064;-80
2022/06/02 08:24:24;;;;;;;8.70;1.70;;;15.10;99.90;;;;;;5054420;28;20131;-79
2022/06/02 08:27:24;;;;;;;6.17;1.50;;;15.20;99.90;;;;;;5073611;28;20134;-83
2022/06/02 08:29:57;;;;;;;7.32;1.50;;;15.10;99.90;;;;;;5060471;28;20379;-81
2022/06/02 08:32:50;;;;;;;2.90;1.30;;;15.30;99.90;;;;;;5087195;28;20043;-79
2022/06/02 08:35:49;;;;;;;6.05;1.55;;;15.50;99.90;;;;;;5064400;28;20130;-80
2022/06/02 08:38:21;;;;;;;3.92;1.42;;;15.70;99.90;;;;;;5057360;28;20521;-83
2022/06/02 08:40:56;;;;;;;4.10;1.45;;;15.70;99.90;;;;;;5066430;28;20135;-81
2022/06/02 08:43:42;;;;;;;6.78;1.40;;;15.60;99.90;;;;;;5068172;28;20119;-80
2022/06/02 08:46:35;;;;;;;3.90;1.30;;;15.60;99.90;;;;;;5053628;28;20083;-79
2022/06/02 08:49:29;;;;;;;5.03;1.48;;;15.70;99.90;;;;;;5036177;28;20071;-80
2022/06/02 08:52:26;;;;;;;4.03;1.50;;;15.90;99.90;;;;;;5071968;28;20048;-82
2022/06/02 08:55:19;;;;;;;3.05;1.20;;;15.80;99.90;;;;;;5062761;28;20060;-78
2022/06/02 08:58:16;;;;;;;5.72;1.38;;;15.90;99.90;;;;;;5075350;28;20071;-80
2022/06/02 09:01:13;;;;;;;4.40;1.45;;;15.90;99.90;;;;;;5053244;28;20036;-81
2022/06/02 09:04:16;;;;;;;4.07;1.30;;;15.90;99.90;;;;;;5046837;28;20230;-78
2022/06/02 09:07:12;;;;;;;3.58;1.50;;;15.80;99.90;;;;;;5070598;28;20063;-77
2022/06/02 09:10:10;;;;;;;2.60;1.35;;;15.80;99.90;;;;;;5077359;28;20062;-80
2022/06/02 09:12:50;;;;;;;3.35;1.40;;;15.90;99.90;;;;;;5001226;28;20506;-81
2022/06/02 09:15:54;;;;;;;2.67;1.10;;;16.20;99.90;;;;;;4994443;28;20042;-79
2022/06/02 09:18:57;;;;;;;5.60;1.30;;;16.20;99.90;;;;;;4993252;28;20065;-79
2022/06/02 09:21:29;;;;;;;4.68;1.60;;;16.50;99.90;;;;;;5008252;28;20497;-79
2022/06/02 09:24:25;;;;;;;4.18;1.33;;;16.20;99.90;;;;;;4991655;28;20115;-78
2022/06/02 09:27:12;;;;;;;5.85;1.85;;;16.20;99.90;;;;;;4998542;28;20084;-79
2022/06/02 09:29:54;;;;;;;3.00;1.45;;;16.60;99.90;;;;;;5004636;28;20041;-80
2022/06/02 09:32:57;;;;;;;4.35;1.40;;;16.60;99.90;;;;;;5028520;28;20087;-78
2022/06/02 09:35:34;;;;;;;3.37;1.40;;;16.30;99.90;;;;;;5010172;28;20045;-78
2022/06/02 09:38:23;;;;;;;4.55;1.30;;;16.70;99.90;;;;;;4991996;28;20771;-81
2022/06/02 09:41:22;;;;;;;3.30;1.40;;;16.90;99.90;;;;;;4998550;28;20096;-81
2022/06/02 09:44:07;;;;;;;4.07;1.65;;;16.90;99.90;;;;;;4962674;28;20390;-81
2022/06/02 09:46:48;;;;;;;2.00;1.40;;;16.70;99.90;;;;;;4965105;28;20042;-84
2022/06/02 09:49:38;;;;;;;4.63;1.63;;;16.40;99.90;;;;;;4993012;28;20324;-79
2022/06/02 09:52:21;;;;;;;3.80;1.48;;;16.60;99.90;;;;;;5021183;28;20493;-81
2022/06/02 09:55:07;;;;;;;4.03;1.60;;;16.80;99.90;;;;;;4996310;28;20172;-75
2022/06/02 09:58:17;;;;;;;5.80;1.50;;;16.80;99.90;;;;;;5016704;28;20053;-79
2022/06/02 10:00:48;;;;;;;5.05;1.50;;;17.40;99.90;;;;;;4992472;28;20582;-78
2022/06/02 10:03:45;;;;;;;2.17;1.20;;;17.80;99.90;;;;;;5019509;28;20108;-78
2022/06/02 10:07:00;;;;;;;6.25;1.90;;;17.70;99.90;;;;;;5029350;28;20038;-76
2022/06/02 10:09:44;;;;;;;2.85;1.58;;;17.30;99.90;;;;;;5000532;28;20448;-78
2022/06/02 10:12:58;;;;;;;4.05;1.40;;;17.40;99.90;;;;;;5027700;28;20049;-81
2022/06/02 10:15:38;;;;;;;4.25;1.40;;;17.40;99.90;;;;;;4919222;29;20101;-80
2022/06/02 10:18:23;;;;;;;2.10;1.30;;;17.90;99.90;;;;;;4943315;28;20051;-78
2022/06/02 10:21:08;;;;;;;5.15;1.50;;;17.90;99.90;;;;;;4953730;28;20050;-77
2022/06/02 10:23:42;;;;;;;;;;;17.80;99.90;;;;;;4979747;28;20133;-79
2022/06/02 10:26:42;;;;;;;5.13;1.25;;;17.70;99.90;;;;;;4977586;28;19918;-80
2022/06/02 10:29:44;;;;;;;4.70;1.45;;;17.70;99.90;;;;;;4986088;28;20391;-79
2022/06/02 10:32:43;;;;;;;2.40;1.50;;;17.90;99.90;;;;;;4989375;28;20053;-79
2022/06/02 10:35:30;;;;;;;4.18;1.77;;;18.30;99.90;;;;;;4978643;28;20346;-82
2022/06/02 10:38:17;;;;;;;6.53;1.65;;;18.40;99.90;;;;;;4961343;28;20046;-79
2022/06/02 10:40:46;;;;;;;4.10;1.67;;;18.50;99.90;;;;;;4974858;28;20133;-77
2022/06/02 10:43:14;;;;;;;5.60;1.90;;;17.90;99.90;;;;;;4989960;28;20050;-76
2022/06/02 10:46:17;;;;;;;3.83;1.60;;;18.10;99.90;;;;;;4980274;28;20137;-82
2022/06/02 10:49:04;;;;;;;2.65;1.50;;;18.00;99.90;;;;;;4990043;28;20094;-79
2022/06/02 10:51:36;;;;;;;4.25;1.40;;;18.40;99.90;;;;;;4993078;28;20209;-79
2022/06/02 10:54:38;;;;;;;1.95;1.17;;;19.00;99.90;;;;;;5078499;28;20048;-82
2022/06/02 10:57:32;;;;;;;4.90;1.70;;;19.00;99.90;;;;;;5068923;28;20084;-76
2022/06/02 11:00:17;;;;;;;4.40;1.75;;;19.00;99.90;;;;;;5082686;28;20048;-77
2022/06/02 11:03:51;;;;;;;3.95;1.73;;;19.30;99.90;;;;;;5064567;28;20617;-83
2022/06/02 11:06:25;;;;;;;4.20;1.52;;;18.90;99.90;;;;;;5002032;28;20188;-79
2022/06/02 11:09:12;;;;;;;6.45;1.38;;;19.10;99.90;;;;;;4990521;28;20187;-78
2022/06/02 11:11:41;;;;;;;3.80;1.48;;;19.50;99.90;;;;;;4991369;28;20045;-75
2022/06/02 11:14:31;;;;;;;4.28;1.33;;;19.60;99.90;;;;;;4991822;28;20485;-79
2022/06/02 11:17:15;;;;;;;4.20;1.60;;;19.50;99.90;;;;;;4989680;28;20057;-80
2022/06/02 11:20:13;;;;;;;3.47;1.63;;;20.00;99.90;;;;;;5008719;28;20104;-78
2022/06/02 11:22:50;;;;;;;4.60;1.38;;;20.40;99.90;;;;;;4996634;28;20054;-81
2022/06/02 11:25:27;;;;;;;3.45;1.48;;;19.90;99.90;;;;;;4990531;28;20038;-76
2022/06/02 11:28:08;;;;;;;3.90;1.60;;;19.40;99.90;;;;;;4987007;28;20053;-76
2022/06/02 11:31:03;;;;;;;3.00;1.60;;;18.70;99.90;;;;;;4990818;28;20085;-78
2022/06/02 11:34:21;;;;;;;4.22;1.52;;;18.90;99.90;;;;;;4994506;28;20058;-77
2022/06/02 11:37:24;;;;;;;2.92;1.65;;;19.60;99.90;;;;;;4984574;28;20046;-76
2022/06/02 11:39:58;;;;;;;3.38;1.40;;;19.60;99.90;;;;;;4992091;28;20060;-75
2022/06/02 11:42:50;;;;;;;3.37;1.50;;;19.40;99.90;;;;;;5074476;28;20054;-77
2022/06/02 11:45:36;;;;;;;3.40;1.40;;;19.70;99.90;;;;;;5052637;28;20067;-79
2022/06/02 11:48:24;;;;;;;2.58;1.20;;;19.90;99.90;;;;;;5068065;28;20048;-77
2022/06/02 11:51:20;;;;;;;3.33;1.20;;;20.50;99.90;;;;;;5052527;28;20050;-78
2022/06/02 11:54:27;;;;;;;2.80;1.23;;;21.00;99.90;;;;;;5083017;28;20035;-77
2022/06/02 11:57:14;;;;;;;4.43;1.30;;;20.90;99.90;;;;;;5006502;28;20046;-79
2022/06/02 11:59:45;;;;;;;3.58;1.45;;;21.60;99.90;;;;;;4990873;28;20157;-79
2022/06/02 12:02:19;;;;;;;2.50;1.10;;;22.10;99.90;;;;;;4979873;28;20081;-77
2022/06/02 12:05:07;;;;;;;5.03;1.27;;;21.60;99.90;;;;;;5002885;28;20129;-80
2022/06/02 12:08:09;;;;;;;3.55;1.30;;;21.10;99.90;;;;;;4992578;28;20120;-81
2022/06/02 12:10:53;;;;;;;3.13;1.10;;;21.20;99.90;;;;;;4987239;28;20065;-78
2022/06/02 12:13:40;;;;;;;3.60;1.27;;;21.30;99.90;;;;;;4991555;28;20046;-79
2022/06/02 12:16:31;;;;;;;5.03;1.23;;;21.50;99.90;;;;;;4996524;28;20105;-76
2022/06/02 12:19:32;;;;;;;2.38;1.05;;;21.40;99.90;;;;;;4917350;29;20097;-77
2022/06/02 12:22:09;;;;;;;2.45;1.20;;;21.10;99.90;;;;;;4918611;29;20052;-78
2022/06/02 12:24:58;;;;;;;9.82;1.50;;;21.00;99.90;;;;;;4940124;28;20048;-76
2022/06/02 12:27:45;;;;;;;1.65;1.00;;;21.20;99.90;;;;;;4843036;29;20677;-77
2022/06/02 12:30:26;;;;;;;4.10;1.25;;;21.60;99.90;;;;;;4834428;29;20069;-76
2022/06/02 12:33:26;;;;;;;4.50;1.27;;;21.30;99.90;;;;;;4866684;29;20142;-78
2022/06/02 12:36:10;;;;;;;1.55;0.95;;;21.70;99.90;;;;;;4893263;29;20436;-84
2022/06/02 12:38:44;;;;;;;5.60;1.20;;;22.00;99.90;;;;;;4894516;29;20044;-79
2022/06/02 12:41:55;;;;;;;4.10;1.15;;;21.60;99.90;;;;;;4906423;29;20040;-78
2022/06/02 12:44:47;;;;;;;3.25;1.33;;;21.10;99.90;;;;;;4903849;28;20191;-78
2022/06/02 12:47:50;;;;;;;2.65;1.30;;;20.30;99.90;;;;;;4914380;29;20140;-79
2022/06/02 12:50:28;;;;;;;2.70;1.00;;;20.30;99.90;;;;;;4885106;29;20064;-78
2022/06/02 12:53:00;;;;;;;4.05;1.33;;;20.80;99.90;;;;;;4901795;29;20114;-76
2022/06/02 12:55:47;;;;;;;2.92;1.20;;;21.60;99.90;;;;;;4937412;28;20077;-80
2022/06/02 12:59:00;;;;;;;2.35;1.23;;;21.80;99.90;;;;;;4982203;28;20058;-76
2022/06/02 13:01:28;;;;;;;2.15;1.10;;;22.10;99.90;;;;;;4987986;28;20037;-79
2022/06/02 13:04:09;;;;;;;3.13;1.10;;;22.10;99.90;;;;;;5002321;28;20067;-81
2022/06/02 13:06:56;;;;;;;2.88;1.20;;;21.20;99.90;;;;;;5048015;28;20123;-80
2022/06/02 13:10:03;;;;;;;4.15;1.15;;;21.30;99.90;;;;;;5055949;28;20102;-79
2022/06/02 13:12:59;;;;;;;3.42;1.17;;;21.00;99.90;;;;;;5013327;28;20045;-77
2022/06/02 13:15:44;;;;;;;4.65;1.30;;;20.90;99.90;;;;;;5006854;28;20038;-80
2022/06/02 13:18:34;;;;;;;1.63;0.98;;;21.50;99.90;;;;;;4994120;28;20162;-81
2022/06/02 13:21:05;;;;;;;3.83;1.08;;;21.00;99.90;;;;;;5005546;28;20046;-77
2022/06/02 13:24:02;;;;;;;3.33;1.20;;;21.30;99.90;;;;;;5003123;28;20473;-78
2022/06/02 13:27:05;;;;;;;1.85;1.10;;;21.50;99.90;;;;;;5039363;28;20179;-78
2022/06/02 13:29:49;;;;;;;2.00;1.00;;;21.60;99.90;;;;;;5042000;28;20379;-76
2022/06/02 13:32:26;;;;;;;2.80;1.05;;;21.50;99.90;;;;;;5028282;28;20143;-78
2022/06/02 13:35:29;;;;;;;3.25;1.33;;;21.20;99.90;;;;;;5046577;28;20052;-76
2022/06/02 13:38:21;;;;;;;4.00;1.30;;;21.60;99.90;;;;;;5051478;28;20045;-78
2022/06/02 13:41:04;;;;;;;3.85;1.20;;;21.60;99.90;;;;;;5028551;28;20173;-79
2022/06/02 13:43:48;;;;;;;1.85;1.15;;;22.50;99.90;;;;;;5047576;28;20075;-83
2022/06/02 13:46:24;;;;;;;;;;;22.70;99.50;;;;;;5059966;28;20063;-79
2022/06/02 13:49:21;;;;;;;3.35;1.30;;;22.70;99.60;;;;;;5064023;28;20328;-77
2022/06/02 13:52:35;;;;;;;3.28;1.27;;;23.00;99.20;;;;;;5056596;28;20103;-80
2022/06/02 13:57:58;;;;;;;2.67;0.95;;;22.40;99.90;;;;;;5028611;28;20060;-81
2022/06/02 14:00:41;;;;;;;3.15;1.30;;;22.30;99.80;;;;;;5028284;28;20076;-82
2022/06/02 14:03:45;;;;;;;3.97;1.10;;;22.00;99.90;;;;;;5055259;28;20025;-82
2022/06/02 14:06:17;;;;;;;1.88;1.20;;;21.60;99.90;;;;;;5037874;28;20041;-81
2022/06/02 14:12:46;;;;;;;5.85;1.20;;;21.80;99.70;;;;;;5055215;28;20040;-82
2022/06/02 14:15:40;;;;;;;2.25;1.08;;;22.10;99.90;;;;;;5024260;28;20551;-81
2022/06/02 14:18:25;;;;;;;2.35;1.10;;;22.60;99.00;;;;;;4947617;28;20067;-81
2022/06/02 14:21:14;;;;;;;2.47;0.98;;;22.60;99.60;;;;;;4952923;28;20043;-81
2022/06/02 14:23:48;;;;;;;2.90;1.05;;;22.90;98.50;;;;;;4937261;29;20066;-82
2022/06/02 14:26:45;;;;;;;4.10;1.30;;;22.70;97.60;;;;;;4926946;29;20051;-83
2022/06/02 14:29:13;;;;;;;2.13;0.98;;;22.80;98.60;;;;;;4928105;28;20129;-82
2022/06/02 14:31:56;;;;;;;2.55;1.10;;;23.50;97.10;;;;;;4962932;28;20046;-81
2022/06/02 14:34:36;;;;;;;2.43;1.10;;;23.60;96.20;;;;;;4978149;28;20169;-88
2022/06/02 14:37:14;;;;;;;3.97;1.10;;;23.30;97.20;;;;;;4981978;28;20058;-83
2022/06/02 14:40:06;;;;;;;3.38;1.10;;;23.00;97.20;;;;;;4982790;28;20077;-84
2022/06/02 14:43:07;;;;;;;2.75;1.00;;;23.80;96.80;;;;;;4924697;29;20048;-80
2022/06/02 14:45:56;;;;;;;2.22;1.02;;;23.80;96.80;;;;;;4929441;29;20569;-79
2022/06/02 14:48:58;;;;;;;3.10;1.20;;;23.40;96.60;;;;;;4911417;29;20090;-82
2022/06/02 14:51:26;;;;;;;4.05;1.30;;;23.10;97.00;;;;;;4926905;29;20051;-82